Barrett, Minnesota
Current Conditions -  °F | °C
As of 6:54 PM on Friday 26 Dec 2014 (Local Time) from KY63 Reporting Station
Overcast Overcast  
Wind Chill: 12°   Ceiling: 1700
Heat Index: 23°   Visibility: 10mi
Dew Point: 18°   Wind: 10mph
Humidity: 83%   Direction: 350°N
Pressure: 30.15"   Gusts: NA
Location:  45.91°N, 95.89°W
Report Text: KY63 270054Z AUTO 35009KT 10SM OVC017 M05/M08 A3015 RMK AO2 T10521076
Loading
Personal Weather Stations






























Interactive Weather Map New forecast layout! Learn more

10-Day Weather Forecast

Advertisements
Track Severe Weather on mobile